Terminal Aerodrome Forecast
Issued by NWS

Home | Current Version | Previous Version | Text Only | Print | Product List | Glossary On
Versions: 1 2 3 4 5 6 7 8 9 10 11 12 13 14 15 16 17 18 19
000
FTUS43 KGRR 191100
TAFLAN
TAF
KLAN 191140Z 1912/2012 11004KT P6SM FEW025
     FM191400 15007KT P6SM SCT010
     FM191800 17010G18KT P6SM SCT035
     FM200000 18009KT P6SM SCT200=

USA.gov is the U.S. government's official web portal to all federal, state and local government web resources and services.